createdAt,value
2018-03-31T00:01:45.577Z,10.50
2018-03-31T00:04:14.369Z,10.36
2018-03-31T00:06:43.117Z,10.27
2018-03-31T00:09:11.587Z,10.32
2018-03-31T00:11:40.354Z,10.34
2018-03-31T00:14:09.188Z,10.23
2018-03-31T00:16:38.002Z,10.16
2018-03-31T00:19:06.495Z,10.11
2018-03-31T00:21:35.394Z,10.14
2018-03-31T00:24:04.472Z,10.15
2018-03-31T00:26:32.988Z,10.22
2018-03-31T00:29:01.767Z,10.45
2018-03-31T00:31:30.554Z,10.51
2018-03-31T00:33:59.343Z,10.50
2018-03-31T00:36:28.318Z,10.49
2018-03-31T00:38:56.806Z,10.51
2018-03-31T00:41:25.556Z,10.57
2018-03-31T00:43:54.308Z,10.50
2018-03-31T00:46:23.060Z,10.49
2018-03-31T00:48:51.836Z,10.53
2018-03-31T00:51:20.767Z,10.47
2018-03-31T00:53:49.548Z,10.54
2018-03-31T00:56:18.593Z,10.44
2018-03-31T00:58:47.398Z,10.50
2018-03-31T01:01:15.882Z,10.41
2018-03-31T01:03:44.699Z,10.41
2018-03-31T01:06:13.448Z,10.40
2018-03-31T01:08:42.230Z,10.30
2018-03-31T01:11:11.481Z,10.26
2018-03-31T01:13:40.280Z,10.18
2018-03-31T01:16:09.036Z,10.06
2018-03-31T01:18:37.852Z,10.12
2018-03-31T01:21:06.651Z,10.04
2018-03-31T01:23:35.517Z,9.94
2018-03-31T01:26:04.331Z,9.86
2018-03-31T01:28:33.127Z,9.91
2018-03-31T01:31:01.869Z,9.83
2018-03-31T01:33:30.637Z,9.74
2018-03-31T01:35:59.383Z,9.72
2018-03-31T01:38:27.860Z,9.62
2018-03-31T01:40:56.620Z,9.61
2018-03-31T01:43:25.369Z,9.50
2018-03-31T01:45:53.924Z,9.43
2018-03-31T01:48:22.666Z,9.36
2018-03-31T01:50:51.461Z,9.25
2018-03-31T01:53:20.312Z,9.15
2018-03-31T01:55:48.791Z,9.10
2018-03-31T01:58:17.555Z,9.07
2018-03-31T02:00:46.362Z,9.05
2018-03-31T02:03:15.151Z,9.12
2018-03-31T02:05:43.877Z,9.09
2018-03-31T02:08:12.402Z,9.17
2018-03-31T02:10:41.335Z,9.10
2018-03-31T02:13:09.836Z,9.01
2018-03-31T02:15:38.588Z,8.94
2018-03-31T02:18:07.343Z,8.90
2018-03-31T02:20:36.121Z,8.75
2018-03-31T02:23:04.895Z,8.72
2018-03-31T02:25:33.444Z,9.03
2018-03-31T02:28:02.210Z,9.06
2018-03-31T02:30:31.005Z,9.27
2018-03-31T02:32:59.811Z,9.31
2018-03-31T02:35:28.605Z,9.29
2018-03-31T02:37:57.338Z,9.32
2018-03-31T02:40:26.091Z,9.33
2018-03-31T02:42:54.878Z,9.29
2018-03-31T02:45:23.631Z,9.36
2018-03-31T02:47:52.411Z,9.33
2018-03-31T02:50:21.153Z,9.27
2018-03-31T02:52:50.077Z,9.29
2018-03-31T02:55:18.461Z,9.15
2018-03-31T02:57:47.284Z,9.10
2018-03-31T03:00:16.034Z,9.00
2018-03-31T03:02:44.590Z,8.96
2018-03-31T03:05:13.060Z,8.88
2018-03-31T03:07:41.846Z,8.79
2018-03-31T03:10:10.664Z,8.75
2018-03-31T03:12:39.430Z,8.64
2018-03-31T03:15:07.943Z,8.50
2018-03-31T03:17:36.733Z,8.39
2018-03-31T03:20:04.992Z,8.33
2018-03-31T03:22:33.179Z,8.22
2018-03-31T03:25:01.425Z,8.20
2018-03-31T03:27:29.610Z,8.17
2018-03-31T03:29:57.805Z,8.13
2018-03-31T03:32:25.981Z,8.04
2018-03-31T03:34:54.234Z,7.97
2018-03-31T03:37:22.458Z,7.98
2018-03-31T03:39:50.711Z,7.90
2018-03-31T03:42:18.999Z,7.81
2018-03-31T03:44:47.218Z,7.74
2018-03-31T03:47:15.452Z,7.63
2018-03-31T03:49:43.664Z,7.63
2018-03-31T03:52:11.892Z,7.56
2018-03-31T03:54:40.115Z,7.47
2018-03-31T03:57:08.321Z,7.39
2018-03-31T03:59:36.583Z,7.46
2018-03-31T04:02:04.796Z,7.43
2018-03-31T04:04:33.043Z,7.40
2018-03-31T04:07:01.024Z,7.33
2018-03-31T04:09:29.035Z,7.21
2018-03-31T04:11:57.246Z,7.21
2018-03-31T04:14:25.473Z,7.15
2018-03-31T04:16:53.749Z,7.12
2018-03-31T04:19:22.116Z,7.14
2018-03-31T04:21:50.330Z,7.11
2018-03-31T04:24:18.567Z,7.07
2018-03-31T04:26:46.758Z,7.11
2018-03-31T04:29:14.977Z,7.04
2018-03-31T04:31:44.030Z,6.98
2018-03-31T04:34:12.267Z,6.93
2018-03-31T04:36:40.463Z,6.80
2018-03-31T04:39:08.752Z,6.68
2018-03-31T04:41:37.014Z,6.66
2018-03-31T04:44:05.598Z,6.53
2018-03-31T04:46:33.903Z,6.49
2018-03-31T04:49:02.121Z,6.31
2018-03-31T04:51:30.134Z,6.35
2018-03-31T04:53:58.086Z,6.40
2018-03-31T04:56:26.458Z,6.66
2018-03-31T04:58:54.799Z,6.85
2018-03-31T05:01:23.037Z,7.24
2018-03-31T05:03:52.136Z,7.44
2018-03-31T05:06:20.298Z,7.60
2018-03-31T05:08:48.309Z,7.74
2018-03-31T05:11:16.799Z,7.92
2018-03-31T05:13:44.781Z,8.07
2018-03-31T11:51:14.458Z,15.61
2018-03-31T11:53:42.423Z,15.64
2018-03-31T11:56:10.440Z,15.71
2018-03-31T11:58:38.340Z,15.61
2018-03-31T12:01:06.057Z,15.59
2018-03-31T12:03:34.020Z,15.55
2018-03-31T12:06:01.917Z,15.52
2018-03-31T12:08:29.844Z,15.45
2018-03-31T12:10:57.725Z,15.45
2018-03-31T12:13:25.610Z,15.43
2018-03-31T12:15:53.533Z,15.42
2018-03-31T12:18:21.408Z,15.37
2018-03-31T12:20:49.304Z,15.37
2018-03-31T12:23:17.197Z,15.39
2018-03-31T12:25:45.138Z,15.46
2018-03-31T12:28:13.021Z,15.41
2018-03-31T12:30:40.935Z,15.50
2018-03-31T12:33:08.965Z,15.42
2018-03-31T12:35:36.851Z,15.39
2018-03-31T12:38:04.748Z,15.39
2018-03-31T12:40:33.971Z,15.37
2018-03-31T12:43:01.969Z,15.27
2018-03-31T12:45:29.912Z,15.22
2018-03-31T12:47:57.795Z,15.13
2018-03-31T12:50:25.689Z,15.10
2018-03-31T12:52:53.578Z,15.02
2018-03-31T12:55:21.519Z,15.03
2018-03-31T12:57:49.420Z,15.00
2018-03-31T13:00:17.332Z,14.98
2018-03-31T13:02:45.248Z,14.93
2018-03-31T13:05:13.132Z,14.93
2018-03-31T13:07:41.047Z,14.95
2018-03-31T13:10:08.947Z,14.96
2018-03-31T13:12:36.827Z,14.93
2018-03-31T13:15:04.534Z,14.87
2018-03-31T13:17:32.444Z,14.85
2018-03-31T13:20:00.332Z,14.75
2018-03-31T13:22:28.283Z,14.61
2018-03-31T13:24:56.160Z,14.54
2018-03-31T13:27:24.156Z,14.53
2018-03-31T13:29:52.033Z,14.49
2018-03-31T13:32:19.952Z,14.44
2018-03-31T13:34:47.868Z,14.47
2018-03-31T13:37:15.836Z,14.50
2018-03-31T13:39:43.741Z,14.45
2018-03-31T13:42:11.501Z,13.98
2018-03-31T13:44:39.419Z,13.93
2018-03-31T13:47:07.567Z,13.98
2018-03-31T13:49:35.449Z,14.00
2018-03-31T13:52:03.367Z,13.98
2018-03-31T13:54:31.248Z,13.82
2018-03-31T13:56:59.248Z,13.67
2018-03-31T13:59:27.148Z,13.75
2018-03-31T14:01:55.037Z,13.66
2018-03-31T14:04:22.960Z,13.64
2018-03-31T14:06:50.859Z,13.63
2018-03-31T14:09:18.748Z,13.72
2018-03-31T14:11:46.461Z,13.84
2018-03-31T14:14:14.354Z,13.89
2018-03-31T14:16:42.253Z,13.96
2018-03-31T14:19:10.143Z,14.10
2018-03-31T14:21:38.027Z,14.23
2018-03-31T14:24:05.947Z,14.28
2018-03-31T14:26:33.835Z,14.71
2018-03-31T14:29:01.832Z,15.01
2018-03-31T14:31:29.769Z,14.98
2018-03-31T14:33:57.678Z,14.88
2018-03-31T14:36:25.566Z,14.84
2018-03-31T14:38:53.484Z,14.80
2018-03-31T14:41:21.375Z,14.72
2018-03-31T14:43:49.290Z,14.59
2018-03-31T14:46:17.213Z,14.57
2018-03-31T14:48:45.105Z,14.59
2018-03-31T14:51:13.119Z,14.48
2018-03-31T14:53:41.053Z,14.32
2018-03-31T14:56:08.956Z,14.32
2018-03-31T14:58:36.940Z,14.33
2018-03-31T15:01:04.750Z,14.34
2018-03-31T15:03:32.746Z,14.28
2018-03-31T15:06:00.639Z,14.25
2018-03-31T15:08:28.526Z,14.23
2018-03-31T15:10:56.428Z,14.18
2018-03-31T15:13:24.339Z,14.15
2018-03-31T15:15:52.219Z,14.14
2018-03-31T15:18:20.122Z,14.19
2018-03-31T15:20:48.048Z,14.15
2018-03-31T15:23:15.956Z,14.13
2018-03-31T15:28:18.041Z,14.06
2018-03-31T15:30:45.972Z,14.03
2018-03-31T15:33:13.852Z,13.99
2018-03-31T15:35:41.755Z,13.87
2018-03-31T15:38:09.830Z,13.91
2018-03-31T15:40:37.736Z,13.93
2018-03-31T15:43:05.661Z,13.86
2018-03-31T15:45:33.544Z,13.78
2018-03-31T15:48:01.548Z,13.65
2018-03-31T15:50:29.433Z,13.71
2018-03-31T15:52:57.326Z,13.68
2018-03-31T15:55:25.307Z,13.67
2018-03-31T15:57:53.203Z,13.64
2018-03-31T16:00:21.096Z,13.63
2018-03-31T16:02:49.014Z,13.64
2018-03-31T16:05:16.908Z,13.61
2018-03-31T16:07:44.798Z,13.58
2018-03-31T16:10:12.720Z,13.60
2018-03-31T16:12:40.630Z,13.57
2018-03-31T16:15:08.508Z,13.53
2018-03-31T16:17:36.424Z,13.55
2018-03-31T16:20:04.804Z,13.54
2018-03-31T16:22:32.721Z,13.52
2018-03-31T16:25:00.636Z,13.47
2018-03-31T16:27:28.527Z,13.43
2018-03-31T16:29:56.457Z,13.32
2018-03-31T16:32:24.453Z,13.21
2018-03-31T16:34:52.356Z,13.11
2018-03-31T16:37:20.597Z,12.96
2018-03-31T16:39:48.814Z,12.93
2018-03-31T16:42:17.012Z,12.90
2018-03-31T16:44:45.279Z,12.88
2018-03-31T16:47:13.481Z,12.82
2018-03-31T16:49:41.720Z,12.78
2018-03-31T16:52:10.020Z,12.54
2018-03-31T16:54:38.208Z,12.34
2018-03-31T16:57:06.432Z,12.25
2018-03-31T16:59:34.675Z,12.16
2018-03-31T17:02:02.857Z,12.15
2018-03-31T17:04:31.055Z,12.02
2018-03-31T17:06:59.243Z,12.05
2018-03-31T17:09:27.425Z,12.01
2018-03-31T17:11:55.654Z,11.96
2018-03-31T17:14:23.856Z,11.93
2018-03-31T17:16:52.016Z,11.83
2018-03-31T17:19:20.208Z,11.85
2018-03-31T17:21:48.525Z,11.78
2018-03-31T17:24:16.704Z,11.76
2018-03-31T17:26:44.891Z,11.74
2018-03-31T17:29:13.068Z,11.71
2018-03-31T17:31:41.322Z,11.63
2018-03-31T17:34:09.500Z,11.63
2018-03-31T17:36:37.801Z,11.52
2018-03-31T17:39:06.154Z,11.32
2018-03-31T17:41:34.628Z,11.40
2018-03-31T17:44:02.899Z,11.39
2018-03-31T17:46:31.080Z,11.36
2018-03-31T17:48:59.269Z,11.28
2018-03-31T17:51:27.451Z,11.28
2018-03-31T17:53:55.657Z,11.26
2018-03-31T17:56:23.850Z,11.15
2018-03-31T17:58:52.068Z,11.07
2018-03-31T18:01:20.251Z,11.01
2018-03-31T18:03:48.404Z,11.04
2018-03-31T18:06:16.595Z,11.08
2018-03-31T18:08:44.780Z,11.08
2018-03-31T18:11:12.956Z,10.99
2018-03-31T18:13:41.159Z,11.02
2018-03-31T18:16:09.519Z,11.01
2018-03-31T18:18:37.732Z,11.02
2018-03-31T18:21:05.936Z,11.03
2018-03-31T18:23:34.128Z,11.02
2018-03-31T18:26:02.349Z,10.99
2018-03-31T18:28:30.600Z,11.01
2018-03-31T18:30:58.931Z,10.98
2018-03-31T18:33:27.132Z,10.98
2018-03-31T18:35:55.365Z,10.88
2018-03-31T18:38:23.615Z,10.92
2018-03-31T18:40:51.923Z,10.93
2018-03-31T18:43:20.208Z,10.93
2018-03-31T18:45:48.371Z,10.91
2018-03-31T18:48:16.565Z,10.86
2018-03-31T18:50:44.844Z,10.80
2018-03-31T18:53:13.089Z,10.82
2018-03-31T18:55:41.303Z,10.78
2018-03-31T18:58:09.492Z,10.76
2018-03-31T19:00:37.715Z,10.76
2018-03-31T19:03:05.988Z,10.70
2018-03-31T19:05:34.191Z,10.71
2018-03-31T19:08:02.370Z,10.74
2018-03-31T19:10:30.540Z,10.68
2018-03-31T19:12:58.740Z,10.62
2018-03-31T19:15:26.924Z,10.55
2018-03-31T19:17:55.123Z,10.51
2018-03-31T19:20:23.312Z,10.44
2018-03-31T19:22:51.503Z,10.37
2018-03-31T19:25:25.126Z,10.40
2018-03-31T19:27:53.328Z,10.35
2018-03-31T19:30:21.319Z,10.23
2018-03-31T19:32:49.511Z,10.26
2018-03-31T19:35:17.714Z,10.19
2018-03-31T19:37:45.901Z,10.19
2018-03-31T19:40:14.112Z,10.11
2018-03-31T19:42:42.311Z,10.07
2018-03-31T19:45:10.571Z,10.02
2018-03-31T19:47:38.927Z,9.98
2018-03-31T19:50:07.115Z,10.01
2018-03-31T19:52:35.312Z,9.96
2018-03-31T19:55:03.704Z,9.95
2018-03-31T19:57:31.888Z,9.90
2018-03-31T20:00:00.076Z,9.87
2018-03-31T20:02:28.260Z,9.88
2018-03-31T20:04:56.478Z,9.89
2018-03-31T20:07:24.656Z,9.85
2018-03-31T20:09:52.841Z,9.88
2018-03-31T20:12:21.047Z,9.90
2018-03-31T20:14:49.232Z,9.86
2018-03-31T20:17:17.421Z,9.91
2018-03-31T20:19:45.383Z,9.86
2018-03-31T20:22:13.558Z,9.85
2018-03-31T20:24:41.787Z,9.83
2018-03-31T20:27:09.988Z,9.86
2018-03-31T20:29:38.188Z,9.85
2018-03-31T20:32:06.348Z,9.77
2018-03-31T20:34:34.307Z,9.76
2018-03-31T20:37:02.471Z,9.74
2018-03-31T20:39:30.688Z,9.76
2018-03-31T20:41:58.860Z,9.72
2018-03-31T20:44:27.053Z,9.68
2018-03-31T20:46:55.252Z,9.57
2018-03-31T20:49:23.424Z,9.63
2018-03-31T20:51:51.604Z,9.66
2018-03-31T20:54:19.776Z,9.56
2018-03-31T20:56:47.951Z,9.49
2018-03-31T20:59:16.121Z,9.50
2018-03-31T21:01:44.370Z,9.49
2018-03-31T21:04:12.532Z,9.44
2018-03-31T21:06:40.813Z,9.44
2018-03-31T21:09:08.984Z,9.46
2018-03-31T21:11:37.135Z,9.46
2018-03-31T21:14:05.312Z,9.51
2018-03-31T21:16:33.484Z,9.50
2018-03-31T21:19:01.659Z,9.49
2018-03-31T21:21:29.832Z,9.46
2018-03-31T21:23:58.004Z,9.48
2018-03-31T21:26:26.260Z,9.46
2018-03-31T21:28:54.512Z,9.48
2018-03-31T21:31:22.787Z,9.44
2018-03-31T21:33:50.968Z,9.43
2018-03-31T21:36:19.147Z,9.47
2018-03-31T21:38:47.304Z,9.37
2018-03-31T21:41:15.480Z,9.33
2018-03-31T21:43:43.751Z,9.30
2018-03-31T21:46:11.916Z,9.31
2018-03-31T21:48:40.140Z,9.28
2018-03-31T21:51:08.100Z,9.28
2018-03-31T21:53:36.280Z,9.24
2018-03-31T21:56:04.452Z,9.23
2018-03-31T21:58:32.620Z,9.19
2018-03-31T22:01:00.828Z,9.29
2018-03-31T22:03:29.115Z,9.34
2018-03-31T22:05:57.291Z,9.32
2018-03-31T22:08:25.668Z,9.28
2018-03-31T22:10:53.882Z,9.18
2018-03-31T22:13:27.671Z,9.21
2018-03-31T22:15:55.869Z,9.23
2018-03-31T22:18:24.042Z,9.23
2018-03-31T22:20:52.225Z,9.17
2018-03-31T22:23:20.959Z,9.24
2018-03-31T22:25:49.176Z,9.28
2018-03-31T22:28:17.413Z,9.24
2018-03-31T22:30:45.589Z,9.27
2018-03-31T22:33:13.911Z,9.32
2018-03-31T22:35:42.099Z,9.32
2018-03-31T22:38:10.376Z,9.34
2018-03-31T22:40:38.555Z,9.34
2018-03-31T22:43:06.759Z,9.28
2018-03-31T22:45:34.968Z,9.23
2018-03-31T22:48:03.147Z,9.17
2018-03-31T22:50:31.359Z,9.12
2018-03-31T22:52:59.553Z,9.12
2018-03-31T22:55:27.768Z,9.16
2018-03-31T22:57:56.059Z,9.20
2018-03-31T23:00:24.257Z,9.13
2018-03-31T23:02:52.528Z,9.10
2018-03-31T23:05:21.460Z,9.07
2018-03-31T23:07:50.220Z,9.06
2018-03-31T23:10:18.954Z,9.09
2018-03-31T23:12:47.756Z,9.15
2018-03-31T23:15:16.504Z,9.15
2018-03-31T23:17:45.257Z,9.02
2018-03-31T23:20:13.800Z,9.03
2018-03-31T23:22:43.029Z,9.06
2018-03-31T23:25:11.752Z,9.05
2018-03-31T23:27:40.516Z,9.05
2018-03-31T23:30:09.276Z,8.98
2018-03-31T23:32:38.013Z,8.93
2018-03-31T23:35:06.748Z,8.97
2018-03-31T23:37:35.496Z,8.97
2018-03-31T23:40:03.886Z,9.00
2018-03-31T23:42:32.063Z,8.99
2018-03-31T23:45:00.116Z,9.03
2018-03-31T23:47:28.080Z,8.97
2018-03-31T23:49:56.332Z,9.00
2018-03-31T23:52:24.520Z,9.00
2018-03-31T23:54:52.912Z,8.98
2018-03-31T23:57:21.102Z,9.01
2018-03-31T23:59:49.483Z,9.04
